sensor_id;sensor_type;location;lat;lon;timestamp;temperature;humidity
65374;SHT31;52070;53.760;9.678;2023-12-22T00:02:18;5.46;67.16
65374;SHT31;52070;53.760;9.678;2023-12-22T00:04:45;5.43;67.54
65374;SHT31;52070;53.760;9.678;2023-12-22T00:07:12;5.40;68.15
65374;SHT31;52070;53.760;9.678;2023-12-22T00:09:40;5.33;68.24
65374;SHT31;52070;53.760;9.678;2023-12-22T00:12:08;5.32;68.54
65374;SHT31;52070;53.760;9.678;2023-12-22T00:14:34;5.25;68.75
65374;SHT31;52070;53.760;9.678;2023-12-22T00:17:03;5.29;68.68
65374;SHT31;52070;53.760;9.678;2023-12-22T00:19:30;5.32;68.51
65374;SHT31;52070;53.760;9.678;2023-12-22T00:21:57;5.42;68.17
65374;SHT31;52070;53.760;9.678;2023-12-22T00:24:24;5.44;67.66
65374;SHT31;52070;53.760;9.678;2023-12-22T00:26:53;5.57;65.70
65374;SHT31;52070;53.760;9.678;2023-12-22T00:29:20;5.71;63.88
65374;SHT31;52070;53.760;9.678;2023-12-22T00:31:47;5.78;64.03
65374;SHT31;52070;53.760;9.678;2023-12-22T00:34:13;5.77;64.84
65374;SHT31;52070;53.760;9.678;2023-12-22T00:36:40;5.77;65.29
65374;SHT31;52070;53.760;9.678;2023-12-22T00:39:07;5.74;65.22
65374;SHT31;52070;53.760;9.678;2023-12-22T00:41:34;5.78;65.60
65374;SHT31;52070;53.760;9.678;2023-12-22T00:44:03;5.78;65.21
65374;SHT31;52070;53.760;9.678;2023-12-22T00:46:30;5.77;66.66
65374;SHT31;52070;53.760;9.678;2023-12-22T00:48:57;5.73;69.56
65374;SHT31;52070;53.760;9.678;2023-12-22T00:51:24;5.71;73.20
65374;SHT31;52070;53.760;9.678;2023-12-22T00:53:51;5.70;75.19
65374;SHT31;52070;53.760;9.678;2023-12-22T00:56:18;5.69;77.42
65374;SHT31;52070;53.760;9.678;2023-12-22T00:58:45;5.61;78.96
65374;SHT31;52070;53.760;9.678;2023-12-22T01:01:13;5.49;77.61
65374;SHT31;52070;53.760;9.678;2023-12-22T01:03:40;5.32;75.97
65374;SHT31;52070;53.760;9.678;2023-12-22T01:06:07;5.18;75.70
65374;SHT31;52070;53.760;9.678;2023-12-22T01:08:36;4.99;76.01
65374;SHT31;52070;53.760;9.678;2023-12-22T01:11:03;4.76;76.90
65374;SHT31;52070;53.760;9.678;2023-12-22T01:13:30;4.45;78.63
65374;SHT31;52070;53.760;9.678;2023-12-22T01:15:57;4.23;81.83
65374;SHT31;52070;53.760;9.678;2023-12-22T01:18:25;3.99;83.83
65374;SHT31;52070;53.760;9.678;2023-12-22T01:20:55;3.70;85.40
65374;SHT31;52070;53.760;9.678;2023-12-22T01:23:22;3.49;86.14
65374;SHT31;52070;53.760;9.678;2023-12-22T01:25:50;3.40;86.78
65374;SHT31;52070;53.760;9.678;2023-12-22T01:28:17;3.29;87.28
65374;SHT31;52070;53.760;9.678;2023-12-22T01:30:44;3.34;87.39
65374;SHT31;52070;53.760;9.678;2023-12-22T01:33:11;3.34;87.19
65374;SHT31;52070;53.760;9.678;2023-12-22T01:35:40;3.35;87.27
65374;SHT31;52070;53.760;9.678;2023-12-22T01:38:06;3.36;87.35
65374;SHT31;52070;53.760;9.678;2023-12-22T01:40:33;3.29;87.63
65374;SHT31;52070;53.760;9.678;2023-12-22T01:43:01;3.34;87.98
65374;SHT31;52070;53.760;9.678;2023-12-22T01:45:28;3.29;88.15
65374;SHT31;52070;53.760;9.678;2023-12-22T01:47:55;3.29;88.42
65374;SHT31;52070;53.760;9.678;2023-12-22T01:50:23;3.29;88.54
65374;SHT31;52070;53.760;9.678;2023-12-22T01:52:51;3.34;88.59
65374;SHT31;52070;53.760;9.678;2023-12-22T01:55:19;3.42;88.62
65374;SHT31;52070;53.760;9.678;2023-12-22T01:57:47;3.54;88.43
65374;SHT31;52070;53.760;9.678;2023-12-22T02:00:14;3.66;87.97
65374;SHT31;52070;53.760;9.678;2023-12-22T02:02:41;3.75;87.65
65374;SHT31;52070;53.760;9.678;2023-12-22T02:05:09;3.83;87.46
65374;SHT31;52070;53.760;9.678;2023-12-22T02:07:37;3.93;87.31
65374;SHT31;52070;53.760;9.678;2023-12-22T02:10:07;4.00;87.16
65374;SHT31;52070;53.760;9.678;2023-12-22T02:12:34;4.11;87.28
65374;SHT31;52070;53.760;9.678;2023-12-22T02:15:01;4.16;87.36
65374;SHT31;52070;53.760;9.678;2023-12-22T02:17:39;4.25;87.36
65374;SHT31;52070;53.760;9.678;2023-12-22T02:20:10;4.24;87.39
65374;SHT31;52070;53.760;9.678;2023-12-22T02:22:38;4.30;87.76
65374;SHT31;52070;53.760;9.678;2023-12-22T02:25:05;4.31;87.84
65374;SHT31;52070;53.760;9.678;2023-12-22T02:27:44;4.31;87.96
65374;SHT31;52070;53.760;9.678;2023-12-22T02:30:14;4.31;88.40
65374;SHT31;52070;53.760;9.678;2023-12-22T02:32:42;4.24;89.06
65374;SHT31;52070;53.760;9.678;2023-12-22T02:35:11;4.27;89.40
65374;SHT31;52070;53.760;9.678;2023-12-22T02:37:43;4.24;89.75
65374;SHT31;52070;53.760;9.678;2023-12-22T02:40:12;4.27;89.41
65374;SHT31;52070;53.760;9.678;2023-12-22T02:42:39;4.24;88.24
65374;SHT31;52070;53.760;9.678;2023-12-22T02:45:13;4.25;87.98
65374;SHT31;52070;53.760;9.678;2023-12-22T02:47:40;4.14;87.89
65374;SHT31;52070;53.760;9.678;2023-12-22T02:50:08;3.87;87.63
65374;SHT31;52070;53.760;9.678;2023-12-22T02:52:35;3.62;87.47
65374;SHT31;52070;53.760;9.678;2023-12-22T02:55:04;3.48;87.68
65374;SHT31;52070;53.760;9.678;2023-12-22T02:57:32;3.38;87.83
65374;SHT31;52070;53.760;9.678;2023-12-22T02:59:59;3.35;87.63
65374;SHT31;52070;53.760;9.678;2023-12-22T03:02:26;3.34;86.80
65374;SHT31;52070;53.760;9.678;2023-12-22T03:04:53;3.32;86.06
65374;SHT31;52070;53.760;9.678;2023-12-22T03:07:20;3.26;85.81
65374;SHT31;52070;53.760;9.678;2023-12-22T03:09:46;3.21;85.92
65374;SHT31;52070;53.760;9.678;2023-12-22T03:12:15;3.21;85.25
65374;SHT31;52070;53.760;9.678;2023-12-22T03:14:42;3.22;84.98
65374;SHT31;52070;53.760;9.678;2023-12-22T03:17:09;3.14;85.00
65374;SHT31;52070;53.760;9.678;2023-12-22T03:19:36;3.09;85.33
65374;SHT31;52070;53.760;9.678;2023-12-22T03:22:03;3.12;85.37
65374;SHT31;52070;53.760;9.678;2023-12-22T03:24:30;3.15;85.03
65374;SHT31;52070;53.760;9.678;2023-12-22T03:26:57;3.22;84.96
65374;SHT31;52070;53.760;9.678;2023-12-22T03:29:25;3.19;85.22
65374;SHT31;52070;53.760;9.678;2023-12-22T03:31:52;3.28;84.74
65374;SHT31;52070;53.760;9.678;2023-12-22T03:34:19;3.25;84.85
65374;SHT31;52070;53.760;9.678;2023-12-22T03:36:46;3.26;84.87
65374;SHT31;52070;53.760;9.678;2023-12-22T03:39:14;3.34;84.70
65374;SHT31;52070;53.760;9.678;2023-12-22T03:41:41;3.40;84.32
65374;SHT31;52070;53.760;9.678;2023-12-22T03:44:08;3.48;84.07
65374;SHT31;52070;53.760;9.678;2023-12-22T03:46:36;3.52;84.02
65374;SHT31;52070;53.760;9.678;2023-12-22T03:49:03;3.62;83.80
65374;SHT31;52070;53.760;9.678;2023-12-22T03:51:30;3.76;83.53
65374;SHT31;52070;53.760;9.678;2023-12-22T03:53:57;3.90;83.28
65374;SHT31;52070;53.760;9.678;2023-12-22T03:56:24;4.07;83.36
65374;SHT31;52070;53.760;9.678;2023-12-22T03:58:51;4.16;83.14
65374;SHT31;52070;53.760;9.678;2023-12-22T04:01:18;4.20;83.51
65374;SHT31;52070;53.760;9.678;2023-12-22T04:03:47;4.30;83.65
65374;SHT31;52070;53.760;9.678;2023-12-22T04:06:14;4.31;83.84
65374;SHT31;52070;53.760;9.678;2023-12-22T04:08:41;4.48;83.56
65374;SHT31;52070;53.760;9.678;2023-12-22T04:11:07;4.65;82.78
65374;SHT31;52070;53.760;9.678;2023-12-22T04:13:34;4.68;82.67
65374;SHT31;52070;53.760;9.678;2023-12-22T04:16:01;4.67;82.76
65374;SHT31;52070;53.760;9.678;2023-12-22T04:18:30;4.74;82.65
65374;SHT31;52070;53.760;9.678;2023-12-22T04:20:59;4.75;82.55
65374;SHT31;52070;53.760;9.678;2023-12-22T04:23:26;4.71;82.80
65374;SHT31;52070;53.760;9.678;2023-12-22T04:25:53;4.72;83.14
65374;SHT31;52070;53.760;9.678;2023-12-22T04:28:20;4.65;83.59
65374;SHT31;52070;53.760;9.678;2023-12-22T04:30:47;4.68;83.04
65374;SHT31;52070;53.760;9.678;2023-12-22T04:33:14;4.61;83.55
65374;SHT31;52070;53.760;9.678;2023-12-22T04:35:41;4.61;83.07
65374;SHT31;52070;53.760;9.678;2023-12-22T04:38:10;4.57;82.71
65374;SHT31;52070;53.760;9.678;2023-12-22T04:40:36;4.72;81.03
65374;SHT31;52070;53.760;9.678;2023-12-22T04:43:03;4.79;80.58
65374;SHT31;52070;53.760;9.678;2023-12-22T04:45:30;4.86;80.00
65374;SHT31;52070;53.760;9.678;2023-12-22T04:47:57;4.89;79.10
65374;SHT31;52070;53.760;9.678;2023-12-22T04:50:24;4.95;78.73
65374;SHT31;52070;53.760;9.678;2023-12-22T04:52:51;4.93;78.83
65374;SHT31;52070;53.760;9.678;2023-12-22T04:55:19;4.95;78.49
65374;SHT31;52070;53.760;9.678;2023-12-22T04:57:47;4.98;78.45
65374;SHT31;52070;53.760;9.678;2023-12-22T05:00:15;4.98;78.08
65374;SHT31;52070;53.760;9.678;2023-12-22T05:02:42;4.78;80.13
65374;SHT31;52070;53.760;9.678;2023-12-22T05:05:09;4.40;81.18
65374;SHT31;52070;53.760;9.678;2023-12-22T05:07:37;4.21;81.68
65374;SHT31;52070;53.760;9.678;2023-12-22T05:10:06;4.04;81.70
65374;SHT31;52070;53.760;9.678;2023-12-22T05:12:35;3.91;81.70
65374;SHT31;52070;53.760;9.678;2023-12-22T05:15:02;3.90;81.75
65374;SHT31;52070;53.760;9.678;2023-12-22T05:17:30;3.86;81.43
65374;SHT31;52070;53.760;9.678;2023-12-22T05:19:58;3.86;81.38
65374;SHT31;52070;53.760;9.678;2023-12-22T05:22:25;3.97;81.34
65374;SHT31;52070;53.760;9.678;2023-12-22T05:24:55;4.03;82.20
65374;SHT31;52070;53.760;9.678;2023-12-22T05:27:22;3.79;83.93
65374;SHT31;52070;53.760;9.678;2023-12-22T05:29:50;3.34;85.23
65374;SHT31;52070;53.760;9.678;2023-12-22T05:32:17;2.97;86.72
65374;SHT31;52070;53.760;9.678;2023-12-22T05:34:44;2.63;87.47
65374;SHT31;52070;53.760;9.678;2023-12-22T05:37:11;2.37;88.18
65374;SHT31;52070;53.760;9.678;2023-12-22T05:39:38;2.26;88.69
65374;SHT31;52070;53.760;9.678;2023-12-22T05:42:06;2.15;89.01
65374;SHT31;52070;53.760;9.678;2023-12-22T05:44:33;2.05;89.02
65374;SHT31;52070;53.760;9.678;2023-12-22T05:47:01;2.06;88.91
65374;SHT31;52070;53.760;9.678;2023-12-22T05:49:28;2.09;88.83
65374;SHT31;52070;53.760;9.678;2023-12-22T05:51:56;2.08;88.37
65374;SHT31;52070;53.760;9.678;2023-12-22T05:54:22;2.12;87.83
65374;SHT31;52070;53.760;9.678;2023-12-22T05:56:51;2.16;87.42
65374;SHT31;52070;53.760;9.678;2023-12-22T05:59:18;2.30;87.18
65374;SHT31;52070;53.760;9.678;2023-12-22T06:01:45;2.53;86.26
65374;SHT31;52070;53.760;9.678;2023-12-22T06:04:13;2.68;85.79
65374;SHT31;52070;53.760;9.678;2023-12-22T06:06:40;2.79;85.76
65374;SHT31;52070;53.760;9.678;2023-12-22T06:09:07;2.98;84.70
65374;SHT31;52070;53.760;9.678;2023-12-22T06:11:34;3.09;84.20
65374;SHT31;52070;53.760;9.678;2023-12-22T06:14:01;3.19;83.56
65374;SHT31;52070;53.760;9.678;2023-12-22T06:16:28;3.19;82.84
65374;SHT31;52070;53.760;9.678;2023-12-22T06:18:55;3.43;78.71
65374;SHT31;52070;53.760;9.678;2023-12-22T06:21:23;3.62;75.39
65374;SHT31;52070;53.760;9.678;2023-12-22T06:23:50;3.72;73.04
65374;SHT31;52070;53.760;9.678;2023-12-22T06:26:17;3.78;72.34
65374;SHT31;52070;53.760;9.678;2023-12-22T06:28:44;3.86;70.69
65374;SHT31;52070;53.760;9.678;2023-12-22T06:31:17;3.86;70.77
65374;SHT31;52070;53.760;9.678;2023-12-22T06:33:45;3.94;71.42
65374;SHT31;52070;53.760;9.678;2023-12-22T06:36:18;3.96;72.52
65374;SHT31;52070;53.760;9.678;2023-12-22T06:38:46;3.94;73.83
65374;SHT31;52070;53.760;9.678;2023-12-22T06:41:19;3.96;75.16
65374;SHT31;52070;53.760;9.678;2023-12-22T06:43:46;4.06;75.68
65374;SHT31;52070;53.760;9.678;2023-12-22T06:46:14;4.16;75.61
65374;SHT31;52070;53.760;9.678;2023-12-22T06:48:42;4.13;75.89
65374;SHT31;52070;53.760;9.678;2023-12-22T06:51:16;4.14;76.26
65374;SHT31;52070;53.760;9.678;2023-12-22T06:53:43;4.17;76.78
65374;SHT31;52070;53.760;9.678;2023-12-22T06:56:16;4.16;77.65
65374;SHT31;52070;53.760;9.678;2023-12-22T06:58:43;4.18;77.60
65374;SHT31;52070;53.760;9.678;2023-12-22T07:01:12;4.14;77.98
65374;SHT31;52070;53.760;9.678;2023-12-22T07:03:39;4.14;76.78
65374;SHT31;52070;53.760;9.678;2023-12-22T07:06:06;4.16;76.51
65374;SHT31;52070;53.760;9.678;2023-12-22T07:08:33;4.14;76.65
65374;SHT31;52070;53.760;9.678;2023-12-22T07:11:00;4.10;76.67
65374;SHT31;52070;53.760;9.678;2023-12-22T07:13:28;4.07;76.57
65374;SHT31;52070;53.760;9.678;2023-12-22T07:15:55;4.06;76.49
65374;SHT31;52070;53.760;9.678;2023-12-22T07:18:22;4.04;76.92
65374;SHT31;52070;53.760;9.678;2023-12-22T07:20:50;4.03;76.89
65374;SHT31;52070;53.760;9.678;2023-12-22T07:23:17;4.01;76.98
65374;SHT31;52070;53.760;9.678;2023-12-22T07:25:44;4.06;76.36
65374;SHT31;52070;53.760;9.678;2023-12-22T07:28:11;4.11;77.13
65374;SHT31;52070;53.760;9.678;2023-12-22T07:30:39;3.91;81.22
65374;SHT31;52070;53.760;9.678;2023-12-22T07:33:06;3.72;82.94
65374;SHT31;52070;53.760;9.678;2023-12-22T07:35:33;3.56;84.24
65374;SHT31;52070;53.760;9.678;2023-12-22T07:38:01;3.45;85.06
65374;SHT31;52070;53.760;9.678;2023-12-22T07:40:29;3.31;85.80
65374;SHT31;52070;53.760;9.678;2023-12-22T07:42:57;3.31;86.05
65374;SHT31;52070;53.760;9.678;2023-12-22T07:45:24;3.39;85.33
65374;SHT31;52070;53.760;9.678;2023-12-22T07:47:52;3.51;84.40
65374;SHT31;52070;53.760;9.678;2023-12-22T07:50:19;3.51;84.46
65374;SHT31;52070;53.760;9.678;2023-12-22T07:52:47;3.35;85.34
65374;SHT31;52070;53.760;9.678;2023-12-22T07:55:15;3.01;86.73
65374;SHT31;52070;53.760;9.678;2023-12-22T07:57:41;2.84;87.76
65374;SHT31;52070;53.760;9.678;2023-12-22T08:00:10;2.61;88.50
65374;SHT31;52070;53.760;9.678;2023-12-22T08:02:37;2.42;89.50
65374;SHT31;52070;53.760;9.678;2023-12-22T08:05:06;2.39;90.18
65374;SHT31;52070;53.760;9.678;2023-12-22T08:07:33;2.40;90.65
65374;SHT31;52070;53.760;9.678;2023-12-22T08:10:00;2.44;90.75
65374;SHT31;52070;53.760;9.678;2023-12-22T08:12:27;2.40;90.92
65374;SHT31;52070;53.760;9.678;2023-12-22T08:14:54;2.43;91.00
65374;SHT31;52070;53.760;9.678;2023-12-22T08:17:21;2.47;90.90
65374;SHT31;52070;53.760;9.678;2023-12-22T08:19:50;2.58;90.53
65374;SHT31;52070;53.760;9.678;2023-12-22T08:22:18;2.68;90.02
65374;SHT31;52070;53.760;9.678;2023-12-22T08:24:45;2.79;89.39
65374;SHT31;52070;53.760;9.678;2023-12-22T08:27:13;3.09;87.16
65374;SHT31;52070;53.760;9.678;2023-12-22T08:29:40;3.29;85.34
65374;SHT31;52070;53.760;9.678;2023-12-22T08:32:07;3.45;84.02
65374;SHT31;52070;53.760;9.678;2023-12-22T08:34:34;3.52;83.38
65374;SHT31;52070;53.760;9.678;2023-12-22T08:37:01;3.72;81.21
65374;SHT31;52070;53.760;9.678;2023-12-22T08:39:29;3.78;80.57
65374;SHT31;52070;53.760;9.678;2023-12-22T08:41:57;3.80;79.37
65374;SHT31;52070;53.760;9.678;2023-12-22T08:44:24;3.80;78.32
65374;SHT31;52070;53.760;9.678;2023-12-22T08:46:50;3.78;76.86
65374;SHT31;52070;53.760;9.678;2023-12-22T08:49:17;3.72;77.33
65374;SHT31;52070;53.760;9.678;2023-12-22T08:51:45;3.68;78.68
65374;SHT31;52070;53.760;9.678;2023-12-22T08:54:12;3.65;79.76
65374;SHT31;52070;53.760;9.678;2023-12-22T08:56:40;3.73;79.18
65374;SHT31;52070;53.760;9.678;2023-12-22T08:59:07;3.76;79.18
65374;SHT31;52070;53.760;9.678;2023-12-22T09:01:34;3.82;78.95
65374;SHT31;52070;53.760;9.678;2023-12-22T09:04:01;3.99;78.32
65374;SHT31;52070;53.760;9.678;2023-12-22T09:06:28;4.09;77.85
65374;SHT31;52070;53.760;9.678;2023-12-22T09:08:55;4.17;77.68
65374;SHT31;52070;53.760;9.678;2023-12-22T09:11:23;4.27;76.39
65374;SHT31;52070;53.760;9.678;2023-12-22T09:13:52;4.38;76.01
65374;SHT31;52070;53.760;9.678;2023-12-22T09:16:21;4.55;74.04
65374;SHT31;52070;53.760;9.678;2023-12-22T09:18:48;4.68;73.56
65374;SHT31;52070;53.760;9.678;2023-12-22T09:21:15;4.76;72.28
65374;SHT31;52070;53.760;9.678;2023-12-22T09:23:43;4.86;71.87
65374;SHT31;52070;53.760;9.678;2023-12-22T09:26:12;4.93;71.59
65374;SHT31;52070;53.760;9.678;2023-12-22T09:28:39;4.92;71.73
65374;SHT31;52070;53.760;9.678;2023-12-22T09:31:08;5.12;71.98
65374;SHT31;52070;53.760;9.678;2023-12-22T09:33:35;5.27;70.74
65374;SHT31;52070;53.760;9.678;2023-12-22T09:36:02;5.36;71.55
65374;SHT31;52070;53.760;9.678;2023-12-22T09:38:29;5.43;71.23
65374;SHT31;52070;53.760;9.678;2023-12-22T09:40:56;5.56;71.68
65374;SHT31;52070;53.760;9.678;2023-12-22T09:43:24;5.57;70.88
65374;SHT31;52070;53.760;9.678;2023-12-22T09:45:51;5.67;71.28
65374;SHT31;52070;53.760;9.678;2023-12-22T09:48:21;5.51;71.39
65374;SHT31;52070;53.760;9.678;2023-12-22T09:50:53;5.37;72.17
65374;SHT31;52070;53.760;9.678;2023-12-22T09:53:21;5.20;73.19
65374;SHT31;52070;53.760;9.678;2023-12-22T09:55:49;5.05;74.16
65374;SHT31;52070;53.760;9.678;2023-12-22T09:58:16;4.96;74.87
65374;SHT31;52070;53.760;9.678;2023-12-22T10:00:44;4.92;75.08
65374;SHT31;52070;53.760;9.678;2023-12-22T10:03:12;5.06;75.07
65374;SHT31;52070;53.760;9.678;2023-12-22T10:05:41;5.26;75.05
65374;SHT31;52070;53.760;9.678;2023-12-22T10:08:09;5.20;74.45
65374;SHT31;52070;53.760;9.678;2023-12-22T10:10:38;5.15;74.40
65374;SHT31;52070;53.760;9.678;2023-12-22T10:13:05;5.13;74.81
65374;SHT31;52070;53.760;9.678;2023-12-22T10:15:36;5.15;75.69
65374;SHT31;52070;53.760;9.678;2023-12-22T10:18:05;5.11;75.45
65374;SHT31;52070;53.760;9.678;2023-12-22T10:20:34;5.11;74.80
65374;SHT31;52070;53.760;9.678;2023-12-22T10:23:03;5.09;75.01
65374;SHT31;52070;53.760;9.678;2023-12-22T10:25:30;5.02;74.76
65374;SHT31;52070;53.760;9.678;2023-12-22T10:27:58;4.98;75.05
65374;SHT31;52070;53.760;9.678;2023-12-22T10:30:26;5.04;75.29
65374;SHT31;52070;53.760;9.678;2023-12-22T10:32:54;5.02;75.16
65374;SHT31;52070;53.760;9.678;2023-12-22T10:35:22;4.99;75.36
65374;SHT31;52070;53.760;9.678;2023-12-22T10:37:49;5.00;76.16
65374;SHT31;52070;53.760;9.678;2023-12-22T10:40:19;4.96;76.50
65374;SHT31;52070;53.760;9.678;2023-12-22T10:42:48;4.88;76.86
65374;SHT31;52070;53.760;9.678;2023-12-22T10:45:15;4.79;76.75
65374;SHT31;52070;53.760;9.678;2023-12-22T10:47:43;4.86;76.93
65374;SHT31;52070;53.760;9.678;2023-12-22T10:50:12;4.88;76.67
65374;SHT31;52070;53.760;9.678;2023-12-22T10:52:39;4.85;77.03
65374;SHT31;52070;53.760;9.678;2023-12-22T10:55:06;4.81;77.19
65374;SHT31;52070;53.760;9.678;2023-12-22T10:57:35;4.79;77.28
65374;SHT31;52070;53.760;9.678;2023-12-22T11:00:05;4.78;77.41
65374;SHT31;52070;53.760;9.678;2023-12-22T11:02:35;4.78;77.89
65374;SHT31;52070;53.760;9.678;2023-12-22T11:05:03;4.76;78.05
65374;SHT31;52070;53.760;9.678;2023-12-22T11:07:33;4.74;78.41
65374;SHT31;52070;53.760;9.678;2023-12-22T11:10:04;4.81;79.33
65374;SHT31;52070;53.760;9.678;2023-12-22T11:12:31;4.78;80.67
65374;SHT31;52070;53.760;9.678;2023-12-22T11:15:02;4.76;81.82
65374;SHT31;52070;53.760;9.678;2023-12-22T11:17:32;4.81;82.27
65374;SHT31;52070;53.760;9.678;2023-12-22T11:19:59;4.81;82.47
65374;SHT31;52070;53.760;9.678;2023-12-22T11:22:27;4.78;82.04
65374;SHT31;52070;53.760;9.678;2023-12-22T11:24:55;4.84;81.42
65374;SHT31;52070;53.760;9.678;2023-12-22T11:27:25;4.96;81.30
65374;SHT31;52070;53.760;9.678;2023-12-22T11:29:54;5.06;81.29
65374;SHT31;52070;53.760;9.678;2023-12-22T11:32:24;5.20;80.58
65374;SHT31;52070;53.760;9.678;2023-12-22T11:34:52;5.27;80.03
65374;SHT31;52070;53.760;9.678;2023-12-22T11:37:20;5.20;79.31
65374;SHT31;52070;53.760;9.678;2023-12-22T11:39:47;5.22;79.30
65374;SHT31;52070;53.760;9.678;2023-12-22T11:42:17;5.15;79.17
65374;SHT31;52070;53.760;9.678;2023-12-22T11:44:44;5.13;78.98
65374;SHT31;52070;53.760;9.678;2023-12-22T11:47:14;5.15;79.06
65374;SHT31;52070;53.760;9.678;2023-12-22T11:49:42;5.19;78.62
65374;SHT31;52070;53.760;9.678;2023-12-22T11:52:10;5.19;78.34
65374;SHT31;52070;53.760;9.678;2023-12-22T11:54:43;5.22;78.11
65374;SHT31;52070;53.760;9.678;2023-12-22T11:57:29;5.29;77.93
65374;SHT31;52070;53.760;9.678;2023-12-22T11:59:57;5.43;77.38
65374;SHT31;52070;53.760;9.678;2023-12-22T12:02:24;5.64;76.57
65374;SHT31;52070;53.760;9.678;2023-12-22T12:04:53;5.87;74.60
65374;SHT31;52070;53.760;9.678;2023-12-22T12:07:40;5.75;73.18
65374;SHT31;52070;53.760;9.678;2023-12-22T12:10:10;5.53;73.37
65374;SHT31;52070;53.760;9.678;2023-12-22T12:12:37;5.40;74.35
65374;SHT31;52070;53.760;9.678;2023-12-22T12:15:15;5.57;74.90
65374;SHT31;52070;53.760;9.678;2023-12-22T12:17:44;5.98;74.04
65374;SHT31;52070;53.760;9.678;2023-12-22T12:20:12;6.02;73.14
65374;SHT31;52070;53.760;9.678;2023-12-22T12:22:39;5.75;73.40
65374;SHT31;52070;53.760;9.678;2023-12-22T12:25:07;5.61;74.82
65374;SHT31;52070;53.760;9.678;2023-12-22T12:27:36;5.51;75.10
65374;SHT31;52070;53.760;9.678;2023-12-22T12:30:08;5.46;76.14
65374;SHT31;52070;53.760;9.678;2023-12-22T12:32:37;5.35;76.54
65374;SHT31;52070;53.760;9.678;2023-12-22T12:35:05;5.19;78.08
65374;SHT31;52070;53.760;9.678;2023-12-22T12:37:34;4.98;79.55
65374;SHT31;52070;53.760;9.678;2023-12-22T12:40:02;4.86;80.33
65374;SHT31;52070;53.760;9.678;2023-12-22T12:42:31;4.72;81.00
65374;SHT31;52070;53.760;9.678;2023-12-22T12:44:58;4.69;81.55
65374;SHT31;52070;53.760;9.678;2023-12-22T12:47:25;4.60;81.76
65374;SHT31;52070;53.760;9.678;2023-12-22T12:49:58;4.60;82.12
65374;SHT31;52070;53.760;9.678;2023-12-22T12:52:25;4.61;81.33
65374;SHT31;52070;53.760;9.678;2023-12-22T12:54:54;4.68;80.86
65374;SHT31;52070;53.760;9.678;2023-12-22T12:57:21;4.76;80.37
65374;SHT31;52070;53.760;9.678;2023-12-22T12:59:50;4.88;80.03
65374;SHT31;52070;53.760;9.678;2023-12-22T13:02:17;4.93;79.92
65374;SHT31;52070;53.760;9.678;2023-12-22T13:04:45;4.96;80.16
65374;SHT31;52070;53.760;9.678;2023-12-22T13:07:12;4.96;80.61
65374;SHT31;52070;53.760;9.678;2023-12-22T13:09:39;4.96;80.83
65374;SHT31;52070;53.760;9.678;2023-12-22T13:12:09;4.96;80.98
65374;SHT31;52070;53.760;9.678;2023-12-22T13:14:36;4.96;81.55
65374;SHT31;52070;53.760;9.678;2023-12-22T13:17:03;4.95;81.84
65374;SHT31;52070;53.760;9.678;2023-12-22T13:19:31;4.98;82.12
65374;SHT31;52070;53.760;9.678;2023-12-22T13:21:58;4.86;82.69
65374;SHT31;52070;53.760;9.678;2023-12-22T13:24:26;4.81;83.09
65374;SHT31;52070;53.760;9.678;2023-12-22T13:27:00;4.81;83.49
65374;SHT31;52070;53.760;9.678;2023-12-22T13:29:41;4.69;83.88
65374;SHT31;52070;53.760;9.678;2023-12-22T13:32:14;4.57;84.21
65374;SHT31;52070;53.760;9.678;2023-12-22T13:34:47;4.51;84.43
65374;SHT31;52070;53.760;9.678;2023-12-22T13:37:14;4.54;84.68
65374;SHT31;52070;53.760;9.678;2023-12-22T13:39:41;4.51;84.40
65374;SHT31;52070;53.760;9.678;2023-12-22T13:42:14;4.51;84.46
65374;SHT31;52070;53.760;9.678;2023-12-22T13:44:44;4.37;84.72
65374;SHT31;52070;53.760;9.678;2023-12-22T13:47:13;4.31;85.09
65374;SHT31;52070;53.760;9.678;2023-12-22T13:49:41;4.40;84.84
65374;SHT31;52070;53.760;9.678;2023-12-22T13:52:08;4.41;84.66
65374;SHT31;52070;53.760;9.678;2023-12-22T13:54:50;4.45;84.52
65374;SHT31;52070;53.760;9.678;2023-12-22T13:57:20;4.54;84.09
65374;SHT31;52070;53.760;9.678;2023-12-22T13:59:48;4.58;83.94
65374;SHT31;52070;53.760;9.678;2023-12-22T14:02:15;4.58;83.62
65374;SHT31;52070;53.760;9.678;2023-12-22T14:04:42;4.57;83.64
65374;SHT31;52070;53.760;9.678;2023-12-22T14:07:09;4.57;83.65
65374;SHT31;52070;53.760;9.678;2023-12-22T14:09:36;4.58;84.01
65374;SHT31;52070;53.760;9.678;2023-12-22T14:12:04;4.53;84.06
65374;SHT31;52070;53.760;9.678;2023-12-22T14:14:31;4.51;84.04
65374;SHT31;52070;53.760;9.678;2023-12-22T14:17:00;4.55;83.82
65374;SHT31;52070;53.760;9.678;2023-12-22T14:19:27;4.50;83.92
65374;SHT31;52070;53.760;9.678;2023-12-22T14:21:54;4.50;83.54
65374;SHT31;52070;53.760;9.678;2023-12-22T14:24:21;4.53;83.40
65374;SHT31;52070;53.760;9.678;2023-12-22T14:26:54;4.55;83.22
65374;SHT31;52070;53.760;9.678;2023-12-22T14:29:21;4.54;82.91
65374;SHT31;52070;53.760;9.678;2023-12-22T14:31:49;4.48;82.89
65374;SHT31;52070;53.760;9.678;2023-12-22T14:34:18;4.50;82.98
65374;SHT31;52070;53.760;9.678;2023-12-22T14:36:44;4.50;82.80
65374;SHT31;52070;53.760;9.678;2023-12-22T14:39:11;4.54;82.80
65374;SHT31;52070;53.760;9.678;2023-12-22T14:41:39;4.54;82.66
65374;SHT31;52070;53.760;9.678;2023-12-22T14:44:07;4.53;82.65
65374;SHT31;52070;53.760;9.678;2023-12-22T14:46:37;4.54;82.71
65374;SHT31;52070;53.760;9.678;2023-12-22T14:49:04;4.54;82.53
65374;SHT31;52070;53.760;9.678;2023-12-22T14:51:35;4.53;82.68
65374;SHT31;52070;53.760;9.678;2023-12-22T14:54:03;4.53;82.50
65374;SHT31;52070;53.760;9.678;2023-12-22T14:56:30;4.51;82.47
65374;SHT31;52070;53.760;9.678;2023-12-22T14:58:57;4.54;82.35
65374;SHT31;52070;53.760;9.678;2023-12-22T15:01:25;4.61;81.75
65374;SHT31;52070;53.760;9.678;2023-12-22T15:03:53;4.60;82.05
65374;SHT31;52070;53.760;9.678;2023-12-22T15:06:19;4.61;81.84
65374;SHT31;52070;53.760;9.678;2023-12-22T15:08:48;4.60;81.54
65374;SHT31;52070;53.760;9.678;2023-12-22T15:11:15;4.61;81.50
65374;SHT31;52070;53.760;9.678;2023-12-22T15:13:42;4.55;81.77
65374;SHT31;52070;53.760;9.678;2023-12-22T15:16:09;4.60;81.83
65374;SHT31;52070;53.760;9.678;2023-12-22T15:18:36;4.55;82.07
65374;SHT31;52070;53.760;9.678;2023-12-22T15:21:03;4.57;82.11
65374;SHT31;52070;53.760;9.678;2023-12-22T15:23:30;4.54;82.59
65374;SHT31;52070;53.760;9.678;2023-12-22T15:25:58;4.54;82.89
65374;SHT31;52070;53.760;9.678;2023-12-22T15:28:25;4.58;83.52
65374;SHT31;52070;53.760;9.678;2023-12-22T15:30:52;4.51;84.48
65374;SHT31;52070;53.760;9.678;2023-12-22T15:33:19;4.50;85.05
65374;SHT31;52070;53.760;9.678;2023-12-22T15:35:46;4.36;85.42
65374;SHT31;52070;53.760;9.678;2023-12-22T15:38:13;4.24;85.88
65374;SHT31;52070;53.760;9.678;2023-12-22T15:40:40;4.20;86.14
65374;SHT31;52070;53.760;9.678;2023-12-22T15:43:09;4.17;86.40
65374;SHT31;52070;53.760;9.678;2023-12-22T15:45:36;4.14;86.61
65374;SHT31;52070;53.760;9.678;2023-12-22T15:48:03;4.11;86.81
65374;SHT31;52070;53.760;9.678;2023-12-22T15:50:30;4.10;87.04